sensor_id;sensor_type;location;lat;lon;timestamp;temperature;humidity
35313;DHT22;21425;50.454;30.466;2023-03-31T00:00:16;3.10;99.90
35313;DHT22;21425;50.454;30.466;2023-03-31T00:02:43;4.20;99.90
35313;DHT22;21425;50.454;30.466;2023-03-31T00:05:10;4.30;99.90
35313;DHT22;21425;50.454;30.466;2023-03-31T00:07:35;4.30;99.90
35313;DHT22;21425;50.454;30.466;2023-03-31T00:10:05;4.40;99.90
35313;DHT22;21425;50.454;30.466;2023-03-31T00:12:32;4.40;99.90
35313;DHT22;21425;50.454;30.466;2023-03-31T00:14:57;4.30;99.90
35313;DHT22;21425;50.454;30.466;2023-03-31T00:17:23;4.60;99.90
35313;DHT22;21425;50.454;30.466;2023-03-31T00:19:48;4.40;99.90
35313;DHT22;21425;50.454;30.466;2023-03-31T00:22:14;4.40;99.90
35313;DHT22;21425;50.454;30.466;2023-03-31T00:24:43;8.00;99.90
35313;DHT22;21425;50.454;30.466;2023-03-31T00:27:08;5.70;99.90
35313;DHT22;21425;50.454;30.466;2023-03-31T00:29:35;4.40;99.90
35313;DHT22;21425;50.454;30.466;2023-03-31T00:32:05;4.10;99.90
35313;DHT22;21425;50.454;30.466;2023-03-31T00:34:30;4.40;99.90
35313;DHT22;21425;50.454;30.466;2023-03-31T00:36:56;4.90;99.90
35313;DHT22;21425;50.454;30.466;2023-03-31T00:39:26;4.70;99.90
35313;DHT22;21425;50.454;30.466;2023-03-31T00:41:56;4.50;99.90
35313;DHT22;21425;50.454;30.466;2023-03-31T00:44:22;4.50;99.90
35313;DHT22;21425;50.454;30.466;2023-03-31T00:46:52;4.50;99.90
35313;DHT22;21425;50.454;30.466;2023-03-31T00:49:20;4.40;99.90
35313;DHT22;21425;50.454;30.466;2023-03-31T00:51:48;4.40;99.90
35313;DHT22;21425;50.454;30.466;2023-03-31T00:54:15;6.00;99.90
35313;DHT22;21425;50.454;30.466;2023-03-31T00:56:44;4.70;99.90
35313;DHT22;21425;50.454;30.466;2023-03-31T00:59:12;4.30;99.90
35313;DHT22;21425;50.454;30.466;2023-03-31T01:01:39;4.40;99.90
35313;DHT22;21425;50.454;30.466;2023-03-31T01:04:07;4.40;99.90
35313;DHT22;21425;50.454;30.466;2023-03-31T01:06:35;4.50;99.90
35313;DHT22;21425;50.454;30.466;2023-03-31T01:09:02;7.00;99.90
35313;DHT22;21425;50.454;30.466;2023-03-31T01:11:31;4.50;99.90
35313;DHT22;21425;50.454;30.466;2023-03-31T01:13:57;4.40;99.90
35313;DHT22;21425;50.454;30.466;2023-03-31T01:16:23;4.40;99.90
35313;DHT22;21425;50.454;30.466;2023-03-31T01:18:48;4.90;99.90
35313;DHT22;21425;50.454;30.466;2023-03-31T01:23:58;4.50;99.90
35313;DHT22;21425;50.454;30.466;2023-03-31T01:32:12;4.50;99.90
35313;DHT22;21425;50.454;30.466;2023-03-31T01:35:01;4.50;99.90
35313;DHT22;21425;50.454;30.466;2023-03-31T01:40:23;4.60;99.90
35313;DHT22;21425;50.454;30.466;2023-03-31T01:48:12;4.60;99.20
35313;DHT22;21425;50.454;30.466;2023-03-31T01:50:46;4.60;97.50
35313;DHT22;21425;50.454;30.466;2023-03-31T01:55:39;4.50;95.70
35313;DHT22;21425;50.454;30.466;2023-03-31T01:58:08;4.60;97.70
35313;DHT22;21425;50.454;30.466;2023-03-31T02:00:40;4.40;95.60
35313;DHT22;21425;50.454;30.466;2023-03-31T02:03:14;4.50;94.80
35313;DHT22;21425;50.454;30.466;2023-03-31T02:05:43;3.00;94.50
35313;DHT22;21425;50.454;30.466;2023-03-31T02:08:19;4.50;94.90
35313;DHT22;21425;50.454;30.466;2023-03-31T02:10:45;4.50;94.50
35313;DHT22;21425;50.454;30.466;2023-03-31T02:13:12;4.50;95.80
35313;DHT22;21425;50.454;30.466;2023-03-31T02:15:39;4.50;96.50
35313;DHT22;21425;50.454;30.466;2023-03-31T02:18:06;4.30;96.30
35313;DHT22;21425;50.454;30.466;2023-03-31T02:20:36;4.40;97.10
35313;DHT22;21425;50.454;30.466;2023-03-31T02:23:03;4.40;98.00
35313;DHT22;21425;50.454;30.466;2023-03-31T02:25:31;4.40;99.90
35313;DHT22;21425;50.454;30.466;2023-03-31T02:28:02;4.30;99.90
35313;DHT22;21425;50.454;30.466;2023-03-31T02:30:35;4.30;99.90
35313;DHT22;21425;50.454;30.466;2023-03-31T02:33:06;4.30;99.90
35313;DHT22;21425;50.454;30.466;2023-03-31T02:35:32;4.60;99.90
35313;DHT22;21425;50.454;30.466;2023-03-31T02:37:59;5.20;99.90
35313;DHT22;21425;50.454;30.466;2023-03-31T02:40:24;4.30;99.90
35313;DHT22;21425;50.454;30.466;2023-03-31T02:42:52;4.60;99.90
35313;DHT22;21425;50.454;30.466;2023-03-31T02:48:01;4.20;99.90
35313;DHT22;21425;50.454;30.466;2023-03-31T02:50:28;4.10;99.90
35313;DHT22;21425;50.454;30.466;2023-03-31T02:55:46;4.10;99.90
35313;DHT22;21425;50.454;30.466;2023-03-31T03:01:25;4.10;99.90
35313;DHT22;21425;50.454;30.466;2023-03-31T03:06:19;4.10;99.90
35313;DHT22;21425;50.454;30.466;2023-03-31T03:16:48;2.40;99.90
35313;DHT22;21425;50.454;30.466;2023-03-31T03:19:18;4.10;99.90
35313;DHT22;21425;50.454;30.466;2023-03-31T03:21:44;4.00;99.90
35313;DHT22;21425;50.454;30.466;2023-03-31T03:24:12;4.40;99.90
35313;DHT22;21425;50.454;30.466;2023-03-31T03:26:38;5.60;99.90
35313;DHT22;21425;50.454;30.466;2023-03-31T03:29:04;4.20;99.90
35313;DHT22;21425;50.454;30.466;2023-03-31T03:31:30;4.10;99.90
35313;DHT22;21425;50.454;30.466;2023-03-31T03:33:57;4.00;99.90
35313;DHT22;21425;50.454;30.466;2023-03-31T03:36:23;4.20;99.90
35313;DHT22;21425;50.454;30.466;2023-03-31T03:38:49;4.00;99.90
35313;DHT22;21425;50.454;30.466;2023-03-31T03:41:15;3.90;99.90
35313;DHT22;21425;50.454;30.466;2023-03-31T03:43:40;4.20;99.90
35313;DHT22;21425;50.454;30.466;2023-03-31T03:46:06;3.40;99.90
35313;DHT22;21425;50.454;30.466;2023-03-31T03:48:31;4.10;99.90
35313;DHT22;21425;50.454;30.466;2023-03-31T03:51:00;4.70;99.90
35313;DHT22;21425;50.454;30.466;2023-03-31T03:53:25;4.00;99.90
35313;DHT22;21425;50.454;30.466;2023-03-31T03:55:51;3.80;99.90
35313;DHT22;21425;50.454;30.466;2023-03-31T03:58:17;4.10;99.90
35313;DHT22;21425;50.454;30.466;2023-03-31T04:00:44;4.40;99.90
35313;DHT22;21425;50.454;30.466;2023-03-31T04:03:10;4.10;99.90
35313;DHT22;21425;50.454;30.466;2023-03-31T04:05:35;3.20;99.90
35313;DHT22;21425;50.454;30.466;2023-03-31T04:08:01;4.30;99.90
35313;DHT22;21425;50.454;30.466;2023-03-31T04:10:27;4.20;99.90
35313;DHT22;21425;50.454;30.466;2023-03-31T04:12:52;4.00;99.90
35313;DHT22;21425;50.454;30.466;2023-03-31T04:15:18;4.00;99.90
35313;DHT22;21425;50.454;30.466;2023-03-31T04:17:43;3.50;99.90
35313;DHT22;21425;50.454;30.466;2023-03-31T04:20:15;6.20;99.90
35313;DHT22;21425;50.454;30.466;2023-03-31T04:22:41;3.90;99.90
35313;DHT22;21425;50.454;30.466;2023-03-31T04:25:07;4.10;99.90
35313;DHT22;21425;50.454;30.466;2023-03-31T04:27:43;3.90;99.90
35313;DHT22;21425;50.454;30.466;2023-03-31T04:30:13;4.00;99.90
35313;DHT22;21425;50.454;30.466;2023-03-31T04:32:50;4.00;99.90
35313;DHT22;21425;50.454;30.466;2023-03-31T04:35:18;3.90;99.90
35313;DHT22;21425;50.454;30.466;2023-03-31T04:37:47;4.00;99.90
35313;DHT22;21425;50.454;30.466;2023-03-31T04:40:13;3.90;99.90
35313;DHT22;21425;50.454;30.466;2023-03-31T04:42:40;3.90;99.90
35313;DHT22;21425;50.454;30.466;2023-03-31T04:45:06;2.80;99.90
35313;DHT22;21425;50.454;30.466;2023-03-31T04:47:32;4.10;99.90
35313;DHT22;21425;50.454;30.466;2023-03-31T04:49:57;3.90;99.90
35313;DHT22;21425;50.454;30.466;2023-03-31T04:52:23;4.20;99.90
35313;DHT22;21425;50.454;30.466;2023-03-31T04:54:48;6.70;99.90
35313;DHT22;21425;50.454;30.466;2023-03-31T04:57:14;2.40;99.90
35313;DHT22;21425;50.454;30.466;2023-03-31T04:59:39;4.20;99.90
35313;DHT22;21425;50.454;30.466;2023-03-31T05:02:05;4.60;99.90
35313;DHT22;21425;50.454;30.466;2023-03-31T05:04:30;4.20;99.90
35313;DHT22;21425;50.454;30.466;2023-03-31T05:06:56;4.20;99.90
35313;DHT22;21425;50.454;30.466;2023-03-31T05:09:21;4.20;99.90
35313;DHT22;21425;50.454;30.466;2023-03-31T05:11:47;4.30;99.90
35313;DHT22;21425;50.454;30.466;2023-03-31T05:14:12;4.20;99.90
35313;DHT22;21425;50.454;30.466;2023-03-31T05:16:38;4.40;99.90
35313;DHT22;21425;50.454;30.466;2023-03-31T05:19:03;5.90;99.90
35313;DHT22;21425;50.454;30.466;2023-03-31T05:21:29;4.30;99.90
35313;DHT22;21425;50.454;30.466;2023-03-31T05:23:55;3.60;99.90
35313;DHT22;21425;50.454;30.466;2023-03-31T05:26:22;3.90;99.90
35313;DHT22;21425;50.454;30.466;2023-03-31T05:28:50;4.40;99.90
35313;DHT22;21425;50.454;30.466;2023-03-31T05:31:16;8.10;99.90
35313;DHT22;21425;50.454;30.466;2023-03-31T05:33:42;4.60;99.90
35313;DHT22;21425;50.454;30.466;2023-03-31T05:36:11;5.40;99.90
35313;DHT22;21425;50.454;30.466;2023-03-31T05:38:37;4.70;99.90
35313;DHT22;21425;50.454;30.466;2023-03-31T05:41:03;6.70;99.90
35313;DHT22;21425;50.454;30.466;2023-03-31T05:43:28;4.90;99.90
35313;DHT22;21425;50.454;30.466;2023-03-31T05:45:54;5.00;99.90
35313;DHT22;21425;50.454;30.466;2023-03-31T05:48:20;5.20;99.90
35313;DHT22;21425;50.454;30.466;2023-03-31T05:50:45;4.90;99.90
35313;DHT22;21425;50.454;30.466;2023-03-31T05:53:11;5.00;99.90
35313;DHT22;21425;50.454;30.466;2023-03-31T05:55:37;4.60;99.90
35313;DHT22;21425;50.454;30.466;2023-03-31T05:58:02;5.20;99.90
35313;DHT22;21425;50.454;30.466;2023-03-31T06:00:28;4.00;99.90
35313;DHT22;21425;50.454;30.466;2023-03-31T06:02:54;7.50;99.90
35313;DHT22;21425;50.454;30.466;2023-03-31T06:05:19;5.50;99.90
35313;DHT22;21425;50.454;30.466;2023-03-31T06:07:45;8.00;99.90
35313;DHT22;21425;50.454;30.466;2023-03-31T06:10:10;6.80;99.90
35313;DHT22;21425;50.454;30.466;2023-03-31T06:12:36;5.70;99.90
35313;DHT22;21425;50.454;30.466;2023-03-31T06:15:02;5.70;99.90
35313;DHT22;21425;50.454;30.466;2023-03-31T06:17:28;6.00;99.90
35313;DHT22;21425;50.454;30.466;2023-03-31T06:19:53;6.10;99.90
35313;DHT22;21425;50.454;30.466;2023-03-31T06:22:19;5.40;99.90
35313;DHT22;21425;50.454;30.466;2023-03-31T06:24:45;6.30;99.90
35313;DHT22;21425;50.454;30.466;2023-03-31T06:27:10;6.40;99.90
35313;DHT22;21425;50.454;30.466;2023-03-31T06:29:36;6.80;99.90
35313;DHT22;21425;50.454;30.466;2023-03-31T06:32:01;6.70;99.90
35313;DHT22;21425;50.454;30.466;2023-03-31T06:34:29;6.50;99.90
35313;DHT22;21425;50.454;30.466;2023-03-31T06:36:54;6.60;99.90
35313;DHT22;21425;50.454;30.466;2023-03-31T06:39:20;6.70;98.30
35313;DHT22;21425;50.454;30.466;2023-03-31T06:41:45;6.70;96.30
35313;DHT22;21425;50.454;30.466;2023-03-31T06:44:11;7.10;96.20
35313;DHT22;21425;50.454;30.466;2023-03-31T06:46:36;9.10;95.70
35313;DHT22;21425;50.454;30.466;2023-03-31T06:49:02;6.90;93.40
35313;DHT22;21425;50.454;30.466;2023-03-31T06:51:27;7.00;92.70
35313;DHT22;21425;50.454;30.466;2023-03-31T06:53:53;7.10;91.10
35313;DHT22;21425;50.454;30.466;2023-03-31T06:56:18;7.20;88.30
35313;DHT22;21425;50.454;30.466;2023-03-31T06:58:44;7.50;84.80
35313;DHT22;21425;50.454;30.466;2023-03-31T07:01:10;7.50;82.90
35313;DHT22;21425;50.454;30.466;2023-03-31T07:03:36;9.90;82.70
35313;DHT22;21425;50.454;30.466;2023-03-31T07:06:02;7.80;78.10
35313;DHT22;21425;50.454;30.466;2023-03-31T07:08:27;8.10;76.00
35313;DHT22;21425;50.454;30.466;2023-03-31T07:10:54;8.10;73.30
35313;DHT22;21425;50.454;30.466;2023-03-31T07:13:20;8.40;71.40
35313;DHT22;21425;50.454;30.466;2023-03-31T07:15:46;8.50;69.90
35313;DHT22;21425;50.454;30.466;2023-03-31T07:18:12;8.50;69.10
35313;DHT22;21425;50.454;30.466;2023-03-31T07:20:40;8.60;67.80
35313;DHT22;21425;50.454;30.466;2023-03-31T07:23:06;10.00;67.50
35313;DHT22;21425;50.454;30.466;2023-03-31T07:25:33;8.80;65.40
35313;DHT22;21425;50.454;30.466;2023-03-31T07:27:59;9.60;63.80
35313;DHT22;21425;50.454;30.466;2023-03-31T07:30:24;10.80;63.80
35313;DHT22;21425;50.454;30.466;2023-03-31T07:32:50;9.30;60.60
35313;DHT22;21425;50.454;30.466;2023-03-31T07:35:17;11.80;60.70
35313;DHT22;21425;50.454;30.466;2023-03-31T07:37:43;9.00;59.50
35313;DHT22;21425;50.454;30.466;2023-03-31T07:40:10;9.70;58.00
35313;DHT22;21425;50.454;30.466;2023-03-31T07:42:36;9.10;56.60
35313;DHT22;21425;50.454;30.466;2023-03-31T07:45:03;10.70;57.20
35313;DHT22;21425;50.454;30.466;2023-03-31T07:47:30;9.30;57.00
35313;DHT22;21425;50.454;30.466;2023-03-31T07:49:56;9.60;56.40
35313;DHT22;21425;50.454;30.466;2023-03-31T07:52:22;9.50;56.40
35313;DHT22;21425;50.454;30.466;2023-03-31T07:54:47;9.70;56.00
35313;DHT22;21425;50.454;30.466;2023-03-31T07:57:13;10.70;57.70
35313;DHT22;21425;50.454;30.466;2023-03-31T07:59:40;9.40;56.90
35313;DHT22;21425;50.454;30.466;2023-03-31T08:02:06;9.60;56.10
35313;DHT22;21425;50.454;30.466;2023-03-31T08:04:32;9.50;55.50
35313;DHT22;21425;50.454;30.466;2023-03-31T08:06:57;9.70;56.20
35313;DHT22;21425;50.454;30.466;2023-03-31T08:09:23;9.40;56.00
35313;DHT22;21425;50.454;30.466;2023-03-31T08:11:48;9.60;55.30
35313;DHT22;21425;50.454;30.466;2023-03-31T08:14:14;8.10;53.90
35313;DHT22;21425;50.454;30.466;2023-03-31T08:16:40;9.30;54.90
35313;DHT22;21425;50.454;30.466;2023-03-31T08:19:05;9.00;55.00
35313;DHT22;21425;50.454;30.466;2023-03-31T08:21:31;9.20;55.70
35313;DHT22;21425;50.454;30.466;2023-03-31T08:23:57;8.80;56.20
35313;DHT22;21425;50.454;30.466;2023-03-31T08:26:22;9.00;56.70
35313;DHT22;21425;50.454;30.466;2023-03-31T08:28:49;9.80;57.20
35313;DHT22;21425;50.454;30.466;2023-03-31T08:31:17;8.90;57.40
35313;DHT22;21425;50.454;30.466;2023-03-31T08:33:43;9.00;57.30
35313;DHT22;21425;50.454;30.466;2023-03-31T08:36:09;10.20;58.20
35313;DHT22;21425;50.454;30.466;2023-03-31T08:38:39;8.90;58.00
35313;DHT22;21425;50.454;30.466;2023-03-31T08:43:54;9.10;57.50
35313;DHT22;21425;50.454;30.466;2023-03-31T08:46:21;9.30;57.70
35313;DHT22;21425;50.454;30.466;2023-03-31T08:48:51;9.60;57.60
35313;DHT22;21425;50.454;30.466;2023-03-31T08:51:31;9.30;57.60
35313;DHT22;21425;50.454;30.466;2023-03-31T08:54:32;9.30;57.50
35313;DHT22;21425;50.454;30.466;2023-03-31T08:56:49;9.60;57.10
35313;DHT22;21425;50.454;30.466;2023-03-31T08:59:21;9.80;57.20
35313;DHT22;21425;50.454;30.466;2023-03-31T09:09:34;9.80;56.10
35313;DHT22;21425;50.454;30.466;2023-03-31T09:12:04;9.80;56.00
35313;DHT22;21425;50.454;30.466;2023-03-31T09:17:05;10.10;55.60
35313;DHT22;21425;50.454;30.466;2023-03-31T09:19:35;10.00;55.20
35313;DHT22;21425;50.454;30.466;2023-03-31T09:22:01;9.70;55.00
35313;DHT22;21425;50.454;30.466;2023-03-31T09:24:32;9.90;55.20
35313;DHT22;21425;50.454;30.466;2023-03-31T09:27:02;10.30;54.50
35313;DHT22;21425;50.454;30.466;2023-03-31T09:29:43;13.50;56.00
35313;DHT22;21425;50.454;30.466;2023-03-31T09:34:39;10.20;55.30
35313;DHT22;21425;50.454;30.466;2023-03-31T09:37:05;10.30;54.50
35313;DHT22;21425;50.454;30.466;2023-03-31T09:39:30;10.20;54.70
35313;DHT22;21425;50.454;30.466;2023-03-31T09:41:56;10.00;55.30
35313;DHT22;21425;50.454;30.466;2023-03-31T09:44:25;9.70;55.80
35313;DHT22;21425;50.454;30.466;2023-03-31T09:46:52;9.90;56.30
35313;DHT22;21425;50.454;30.466;2023-03-31T09:49:19;9.70;56.70
35313;DHT22;21425;50.454;30.466;2023-03-31T09:51:45;10.10;57.00
35313;DHT22;21425;50.454;30.466;2023-03-31T09:54:26;10.00;56.40
35313;DHT22;21425;50.454;30.466;2023-03-31T09:56:55;9.90;55.80
35313;DHT22;21425;50.454;30.466;2023-03-31T09:59:21;10.10;55.40
35313;DHT22;21425;50.454;30.466;2023-03-31T10:01:51;10.40;55.30
35313;DHT22;21425;50.454;30.466;2023-03-31T10:04:23;10.60;55.10
35313;DHT22;21425;50.454;30.466;2023-03-31T10:06:49;10.70;54.50
35313;DHT22;21425;50.454;30.466;2023-03-31T10:09:18;10.70;54.50
35313;DHT22;21425;50.454;30.466;2023-03-31T10:11:51;11.00;55.00
35313;DHT22;21425;50.454;30.466;2023-03-31T10:14:17;10.80;54.70
35313;DHT22;21425;50.454;30.466;2023-03-31T10:16:49;11.10;54.20
35313;DHT22;21425;50.454;30.466;2023-03-31T10:19:20;11.10;53.90
35313;DHT22;21425;50.454;30.466;2023-03-31T10:21:47;11.20;53.90
35313;DHT22;21425;50.454;30.466;2023-03-31T10:24:17;11.20;53.50
35313;DHT22;21425;50.454;30.466;2023-03-31T10:26:45;11.30;53.50
35313;DHT22;21425;50.454;30.466;2023-03-31T10:29:12;11.00;53.60
35313;DHT22;21425;50.454;30.466;2023-03-31T10:31:40;11.00;53.60
35313;DHT22;21425;50.454;30.466;2023-03-31T10:34:11;10.60;54.30
35313;DHT22;21425;50.454;30.466;2023-03-31T10:36:41;10.60;55.00
35313;DHT22;21425;50.454;30.466;2023-03-31T10:39:10;10.40;55.30
35313;DHT22;21425;50.454;30.466;2023-03-31T10:41:39;10.10;56.20
35313;DHT22;21425;50.454;30.466;2023-03-31T10:44:05;10.30;56.40
35313;DHT22;21425;50.454;30.466;2023-03-31T10:47:32;10.30;56.50
35313;DHT22;21425;50.454;30.466;2023-03-31T10:49:27;10.40;56.30
35313;DHT22;21425;50.454;30.466;2023-03-31T10:51:53;10.10;57.00
35313;DHT22;21425;50.454;30.466;2023-03-31T10:54:19;11.20;57.50
35313;DHT22;21425;50.454;30.466;2023-03-31T10:56:46;10.50;56.80
35313;DHT22;21425;50.454;30.466;2023-03-31T11:14:59;10.40;56.80
35313;DHT22;21425;50.454;30.466;2023-03-31T11:20:02;10.80;56.50
35313;DHT22;21425;50.454;30.466;2023-03-31T11:25:38;10.90;54.90
35313;DHT22;21425;50.454;30.466;2023-03-31T11:30:35;10.90;55.10
35313;DHT22;21425;50.454;30.466;2023-03-31T11:42:58;10.50;50.00
35313;DHT22;21425;50.454;30.466;2023-03-31T11:48:26;11.30;50.90
35313;DHT22;21425;50.454;30.466;2023-03-31T11:50:54;11.30;51.50
35313;DHT22;21425;50.454;30.466;2023-03-31T11:53:26;11.30;51.00
35313;DHT22;21425;50.454;30.466;2023-03-31T11:55:52;11.30;51.40
35313;DHT22;21425;50.454;30.466;2023-03-31T11:58:22;12.00;52.10
35313;DHT22;21425;50.454;30.466;2023-03-31T12:01:06;12.20;51.30
35313;DHT22;21425;50.454;30.466;2023-03-31T12:03:38;11.50;50.80
35313;DHT22;21425;50.454;30.466;2023-03-31T12:06:11;11.20;51.60
35313;DHT22;21425;50.454;30.466;2023-03-31T12:14:04;11.40;52.10
35313;DHT22;21425;50.454;30.466;2023-03-31T12:16:39;11.70;51.50
35313;DHT22;21425;50.454;30.466;2023-03-31T12:19:15;11.70;50.70
35313;DHT22;21425;50.454;30.466;2023-03-31T12:21:43;11.80;51.10
35313;DHT22;21425;50.454;30.466;2023-03-31T12:24:11;11.70;50.30
35313;DHT22;21425;50.454;30.466;2023-03-31T12:29:31;11.20;52.10
35313;DHT22;21425;50.454;30.466;2023-03-31T12:31:56;10.80;52.30
35313;DHT22;21425;50.454;30.466;2023-03-31T12:34:22;10.50;53.70
35313;DHT22;21425;50.454;30.466;2023-03-31T12:39:38;10.20;54.50
35313;DHT22;21425;50.454;30.466;2023-03-31T12:47:39;10.30;55.30
35313;DHT22;21425;50.454;30.466;2023-03-31T12:55:29;9.30;55.60
35313;DHT22;21425;50.454;30.466;2023-03-31T13:00:53;10.10;56.60
35313;DHT22;21425;50.454;30.466;2023-03-31T13:06:00;10.00;55.90
35313;DHT22;21425;50.454;30.466;2023-03-31T13:11:11;9.90;56.40
35313;DHT22;21425;50.454;30.466;2023-03-31T13:13:39;9.80;55.80
35313;DHT22;21425;50.454;30.466;2023-03-31T13:16:06;10.70;56.90
35313;DHT22;21425;50.454;30.466;2023-03-31T13:18:32;10.60;57.20
35313;DHT22;21425;50.454;30.466;2023-03-31T13:20:58;9.40;57.70
35313;DHT22;21425;50.454;30.466;2023-03-31T13:23:24;9.20;58.10
35313;DHT22;21425;50.454;30.466;2023-03-31T13:25:50;9.30;58.50
35313;DHT22;21425;50.454;30.466;2023-03-31T13:33:14;9.40;59.50
35313;DHT22;21425;50.454;30.466;2023-03-31T13:35:40;9.40;59.70
35313;DHT22;21425;50.454;30.466;2023-03-31T13:40:45;9.60;60.90
35313;DHT22;21425;50.454;30.466;2023-03-31T13:45:47;9.60;63.80
35313;DHT22;21425;50.454;30.466;2023-03-31T13:48:19;9.80;64.70
35313;DHT22;21425;50.454;30.466;2023-03-31T14:01:15;8.90;99.00
35313;DHT22;21425;50.454;30.466;2023-03-31T14:08:53;9.00;99.90
35313;DHT22;21425;50.454;30.466;2023-03-31T14:11:27;8.90;99.90
35313;DHT22;21425;50.454;30.466;2023-03-31T14:14:10;8.70;99.90
35313;DHT22;21425;50.454;30.466;2023-03-31T14:16:37;8.70;99.90
35313;DHT22;21425;50.454;30.466;2023-03-31T14:19:06;9.30;99.90
35313;DHT22;21425;50.454;30.466;2023-03-31T14:21:42;8.70;99.90
35313;DHT22;21425;50.454;30.466;2023-03-31T14:24:18;8.40;99.90
35313;DHT22;21425;50.454;30.466;2023-03-31T14:26:55;8.60;99.90
35313;DHT22;21425;50.454;30.466;2023-03-31T14:32:10;8.50;99.90
35313;DHT22;21425;50.454;30.466;2023-03-31T14:34:40;8.50;99.90
35313;DHT22;21425;50.454;30.466;2023-03-31T14:37:12;8.90;99.90
35313;DHT22;21425;50.454;30.466;2023-03-31T14:39:42;8.40;99.90
35313;DHT22;21425;50.454;30.466;2023-03-31T14:42:12;8.00;99.90
35313;DHT22;21425;50.454;30.466;2023-03-31T14:44:39;8.00;99.90
35313;DHT22;21425;50.454;30.466;2023-03-31T14:47:23;8.00;99.90
35313;DHT22;21425;50.454;30.466;2023-03-31T14:49:58;8.10;99.90
35313;DHT22;21425;50.454;30.466;2023-03-31T14:52:27;8.10;99.90
35313;DHT22;21425;50.454;30.466;2023-03-31T14:54:53;7.90;99.90
35313;DHT22;21425;50.454;30.466;2023-03-31T14:57:19;9.70;99.90
35313;DHT22;21425;50.454;30.466;2023-03-31T14:59:47;7.80;99.90
35313;DHT22;21425;50.454;30.466;2023-03-31T15:02:47;7.90;99.90
35313;DHT22;21425;50.454;30.466;2023-03-31T15:05:07;7.40;99.90
35313;DHT22;21425;50.454;30.466;2023-03-31T15:07:34;7.30;99.90
35313;DHT22;21425;50.454;30.466;2023-03-31T15:10:00;8.50;99.90
35313;DHT22;21425;50.454;30.466;2023-03-31T15:12:26;7.10;99.90
35313;DHT22;21425;50.454;30.466;2023-03-31T15:15:13;7.30;99.90
35313;DHT22;21425;50.454;30.466;2023-03-31T15:17:39;6.90;99.90
35313;DHT22;21425;50.454;30.466;2023-03-31T15:22:50;7.10;99.90
35313;DHT22;21425;50.454;30.466;2023-03-31T15:25:15;8.00;99.90
35313;DHT22;21425;50.454;30.466;2023-03-31T15:27:44;4.70;99.90
35313;DHT22;21425;50.454;30.466;2023-03-31T15:30:15;10.90;99.90
35313;DHT22;21425;50.454;30.466;2023-03-31T15:32:41;6.90;99.90
35313;DHT22;21425;50.454;30.466;2023-03-31T15:35:07;6.80;99.90
35313;DHT22;21425;50.454;30.466;2023-03-31T15:37:41;6.80;99.90
35313;DHT22;21425;50.454;30.466;2023-03-31T15:42:41;6.60;99.90
35313;DHT22;21425;50.454;30.466;2023-03-31T15:47:49;6.70;99.90
35313;DHT22;21425;50.454;30.466;2023-03-31T15:50:16;6.80;99.90
35313;DHT22;21425;50.454;30.466;2023-03-31T15:52:48;6.60;99.90
35313;DHT22;21425;50.454;30.466;2023-03-31T15:57:52;6.60;99.90
35313;DHT22;21425;50.454;30.466;2023-03-31T16:02:52;6.50;99.90
35313;DHT22;21425;50.454;30.466;2023-03-31T16:07:59;6.70;99.90
35313;DHT22;21425;50.454;30.466;2023-03-31T16:10:24;7.30;99.90
35313;DHT22;21425;50.454;30.466;2023-03-31T16:12:52;10.30;99.90
35313;DHT22;21425;50.454;30.466;2023-03-31T16:15:20;6.70;99.90
35313;DHT22;21425;50.454;30.466;2023-03-31T16:17:47;6.60;99.90
35313;DHT22;21425;50.454;30.466;2023-03-31T16:20:18;6.60;99.90
35313;DHT22;21425;50.454;30.466;2023-03-31T16:22:46;6.60;99.90
35313;DHT22;21425;50.454;30.466;2023-03-31T16:25:13;6.80;99.90
35313;DHT22;21425;50.454;30.466;2023-03-31T16:27:59;6.70;99.90
35313;DHT22;21425;50.454;30.466;2023-03-31T16:30:33;6.70;99.90
35313;DHT22;21425;50.454;30.466;2023-03-31T16:35:28;6.70;99.90
35313;DHT22;21425;50.454;30.466;2023-03-31T16:37:53;6.80;99.90
35313;DHT22;21425;50.454;30.466;2023-03-31T16:40:19;6.90;99.90
35313;DHT22;21425;50.454;30.466;2023-03-31T16:42:45;10.50;99.90
35313;DHT22;21425;50.454;30.466;2023-03-31T16:45:10;6.80;99.90
35313;DHT22;21425;50.454;30.466;2023-03-31T16:47:38;6.80;99.90
35313;DHT22;21425;50.454;30.466;2023-03-31T16:50:04;6.70;99.90
35313;DHT22;21425;50.454;30.466;2023-03-31T16:52:32;6.60;99.90
35313;DHT22;21425;50.454;30.466;2023-03-31T16:54:58;6.80;99.90
35313;DHT22;21425;50.454;30.466;2023-03-31T16:57:23;6.80;99.90
35313;DHT22;21425;50.454;30.466;2023-03-31T16:59:49;6.80;99.90
35313;DHT22;21425;50.454;30.466;2023-03-31T17:02:14;8.00;99.90
35313;DHT22;21425;50.454;30.466;2023-03-31T17:04:40;6.80;99.90
35313;DHT22;21425;50.454;30.466;2023-03-31T17:07:05;9.10;99.90
35313;DHT22;21425;50.454;30.466;2023-03-31T17:09:31;6.80;99.90
35313;DHT22;21425;50.454;30.466;2023-03-31T17:11:57;8.20;99.90
35313;DHT22;21425;50.454;30.466;2023-03-31T17:14:22;7.00;99.90
35313;DHT22;21425;50.454;30.466;2023-03-31T17:16:48;6.50;99.90
35313;DHT22;21425;50.454;30.466;2023-03-31T17:19:14;9.30;99.90
35313;DHT22;21425;50.454;30.466;2023-03-31T17:21:41;6.90;99.90
35313;DHT22;21425;50.454;30.466;2023-03-31T17:24:07;6.80;99.90
35313;DHT22;21425;50.454;30.466;2023-03-31T17:26:32;6.90;99.90
35313;DHT22;21425;50.454;30.466;2023-03-31T17:29:00;7.00;99.90
35313;DHT22;21425;50.454;30.466;2023-03-31T17:31:26;6.60;99.90
35313;DHT22;21425;50.454;30.466;2023-03-31T17:33:52;6.90;99.90
35313;DHT22;21425;50.454;30.466;2023-03-31T17:36:17;7.00;99.90
35313;DHT22;21425;50.454;30.466;2023-03-31T17:38:43;6.90;99.90
35313;DHT22;21425;50.454;30.466;2023-03-31T17:41:10;8.20;99.90
35313;DHT22;21425;50.454;30.466;2023-03-31T17:43:37;6.90;99.90
35313;DHT22;21425;50.454;30.466;2023-03-31T17:46:03;6.90;99.90
35313;DHT22;21425;50.454;30.466;2023-03-31T17:48:30;6.70;99.90
35313;DHT22;21425;50.454;30.466;2023-03-31T17:51:02;6.90;99.90
35313;DHT22;21425;50.454;30.466;2023-03-31T17:53:27;6.90;99.90
35313;DHT22;21425;50.454;30.466;2023-03-31T17:55:53;9.70;99.90
35313;DHT22;21425;50.454;30.466;2023-03-31T17:58:19;6.90;99.90
35313;DHT22;21425;50.454;30.466;2023-03-31T18:00:46;6.80;99.90
35313;DHT22;21425;50.454;30.466;2023-03-31T18:03:12;10.60;99.90
35313;DHT22;21425;50.454;30.466;2023-03-31T18:05:37;7.00;99.90
35313;DHT22;21425;50.454;30.466;2023-03-31T18:08:05;6.90;99.90
35313;DHT22;21425;50.454;30.466;2023-03-31T18:10:31;6.90;99.90
35313;DHT22;21425;50.454;30.466;2023-03-31T18:12:57;6.90;99.90
35313;DHT22;21425;50.454;30.466;2023-03-31T18:15:26;5.60;99.90
35313;DHT22;21425;50.454;30.466;2023-03-31T18:17:52;6.70;99.90